createdAt,value
2022-11-12T00:02:15.967Z,4.30
2022-11-12T00:05:42.776Z,4.30
2022-11-12T00:09:05.746Z,4.30
2022-11-12T00:12:28.561Z,4.30
2022-11-12T00:15:54.205Z,4.30
2022-11-12T00:19:15.828Z,4.40
2022-11-12T00:22:39.817Z,4.40
2022-11-12T00:26:01.441Z,4.40
2022-11-12T00:29:23.085Z,4.30
2022-11-12T00:32:46.068Z,4.30
2022-11-12T00:36:08.168Z,4.30
2022-11-12T00:39:30.068Z,4.20
2022-11-12T00:42:51.984Z,4.20
2022-11-12T00:46:13.569Z,4.10
2022-11-12T00:49:36.536Z,4.10
2022-11-12T00:52:58.139Z,4.10
2022-11-12T00:56:19.777Z,4.00
2022-11-12T00:59:41.353Z,3.90
2022-11-12T01:03:03.093Z,3.90
2022-11-12T01:06:26.108Z,3.90
2022-11-12T01:09:47.698Z,4.00
2022-11-12T01:13:09.289Z,3.90
2022-11-12T01:16:31.895Z,3.90
2022-11-12T01:19:53.476Z,3.90
2022-11-12T01:23:16.435Z,3.90
2022-11-12T01:26:38.383Z,3.90
2022-11-12T01:29:59.996Z,3.80
2022-11-12T01:33:21.612Z,3.70
2022-11-12T01:36:43.221Z,3.70
2022-11-12T01:40:07.153Z,3.60
2022-11-12T01:43:28.749Z,3.50
2022-11-12T01:46:57.259Z,3.40
2022-11-12T01:50:21.740Z,3.40
2022-11-12T01:53:44.961Z,3.30
2022-11-12T01:57:09.807Z,3.20
2022-11-12T02:00:31.617Z,3.20
2022-11-12T02:03:53.384Z,3.20
2022-11-12T02:07:15.288Z,3.20
2022-11-12T02:10:38.275Z,3.20
2022-11-12T02:14:01.443Z,3.20
2022-11-12T02:17:23.218Z,3.20
2022-11-12T02:20:45.042Z,3.20
2022-11-12T02:24:21.677Z,3.20
2022-11-12T02:27:45.019Z,3.20
2022-11-12T02:31:06.610Z,3.20
2022-11-12T02:34:28.264Z,3.10
2022-11-12T02:37:49.908Z,3.00
2022-11-12T02:41:11.592Z,3.10
2022-11-12T02:44:34.596Z,3.10
2022-11-12T02:47:59.379Z,3.20
2022-11-12T02:51:20.982Z,3.20
2022-11-12T02:54:42.595Z,3.20
2022-11-12T02:58:04.187Z,3.30
2022-11-12T03:01:27.238Z,3.40
2022-11-12T03:04:49.732Z,3.30
2022-11-12T03:08:11.503Z,3.40
2022-11-12T03:11:33.124Z,3.40
2022-11-12T03:14:54.715Z,3.40
2022-11-12T03:18:17.671Z,3.40
2022-11-12T03:21:39.290Z,3.50
2022-11-12T03:25:00.932Z,3.60
2022-11-12T03:28:22.716Z,3.70
2022-11-12T03:31:44.343Z,3.80
2022-11-12T03:35:08.255Z,3.90
2022-11-12T03:38:30.084Z,3.90
2022-11-12T03:41:51.785Z,4.00
2022-11-12T03:45:13.486Z,4.00
2022-11-12T03:48:35.121Z,4.00
2022-11-12T03:51:58.055Z,4.10
2022-11-12T03:55:20.712Z,4.10
2022-11-12T03:58:42.291Z,4.10
2022-11-12T04:02:03.922Z,4.20
2022-11-12T04:05:25.916Z,4.20
2022-11-12T04:08:48.854Z,4.20
2022-11-12T04:12:10.455Z,4.30
2022-11-12T04:15:32.442Z,4.30
2022-11-12T04:18:54.694Z,4.30
2022-11-12T04:22:16.314Z,4.40
2022-11-12T04:25:40.982Z,4.40
2022-11-12T04:29:02.581Z,4.50
2022-11-12T04:32:24.506Z,4.50
2022-11-12T04:35:46.108Z,4.50
2022-11-12T04:39:07.695Z,4.50
2022-11-12T04:42:30.634Z,4.60
2022-11-12T04:45:53.450Z,4.60
2022-11-12T04:49:15.036Z,4.60
2022-11-12T04:52:36.615Z,4.60
2022-11-12T04:55:58.557Z,4.60
2022-11-12T04:59:21.542Z,4.60
2022-11-12T05:02:43.156Z,4.70
2022-11-12T05:06:05.708Z,4.60
2022-11-12T05:09:28.388Z,4.60
2022-11-12T05:12:50.007Z,4.60
2022-11-12T05:16:12.966Z,4.50
2022-11-12T05:19:34.555Z,4.40
2022-11-12T05:23:08.701Z,4.10
2022-11-12T05:26:30.335Z,4.00
2022-11-12T05:29:51.912Z,3.90
2022-11-12T05:33:14.835Z,3.90
2022-11-12T05:36:36.484Z,3.90
2022-11-12T05:39:58.121Z,3.90
2022-11-12T05:43:19.792Z,3.90
2022-11-12T05:46:41.424Z,4.00
2022-11-12T05:50:04.699Z,4.00
2022-11-12T05:53:26.303Z,4.00
2022-11-12T05:56:47.916Z,4.10
2022-11-12T06:00:10.262Z,4.20
2022-11-12T06:03:31.896Z,4.30
2022-11-12T06:06:54.896Z,4.40
2022-11-12T06:10:20.477Z,4.40
2022-11-12T06:13:42.419Z,4.40
2022-11-12T06:17:04.003Z,4.40
2022-11-12T06:20:25.599Z,4.40
2022-11-12T06:23:49.227Z,4.40
2022-11-12T06:27:10.834Z,4.40
2022-11-12T06:30:32.453Z,4.40
2022-11-12T06:33:54.076Z,4.40
2022-11-12T06:37:15.674Z,4.30
2022-11-12T06:40:38.632Z,4.30
2022-11-12T06:44:00.210Z,4.30
2022-11-12T06:47:21.905Z,4.30
2022-11-12T06:50:43.496Z,4.30
2022-11-12T06:54:05.509Z,4.40
2022-11-12T06:57:28.455Z,4.40
2022-11-12T07:00:50.059Z,4.40
2022-11-12T07:04:11.666Z,4.50
2022-11-12T07:07:33.239Z,4.50
2022-11-12T07:10:55.544Z,4.60
2022-11-12T07:14:18.483Z,4.80
2022-11-12T07:17:40.084Z,4.90
2022-11-12T07:21:02.405Z,5.00
2022-11-12T07:24:24.037Z,5.10
2022-11-12T07:27:45.632Z,5.20
2022-11-12T07:31:19.786Z,5.30
2022-11-12T07:34:43.133Z,5.30
2022-11-12T07:38:10.476Z,5.20
2022-11-12T07:41:39.961Z,5.20
2022-11-12T07:45:02.109Z,5.10
2022-11-12T07:48:25.331Z,5.10
2022-11-12T07:51:47.249Z,5.00
2022-11-12T07:55:09.076Z,5.00
2022-11-12T07:58:31.552Z,5.00
2022-11-12T08:01:53.206Z,5.10
2022-11-12T08:05:21.014Z,5.20
2022-11-12T08:08:43.005Z,5.30
2022-11-12T08:12:04.745Z,5.30
2022-11-12T08:15:26.552Z,5.40
2022-11-12T08:18:48.182Z,5.50
2022-11-12T08:22:11.179Z,6.00
2022-11-12T08:25:32.815Z,6.70
2022-11-12T08:28:54.408Z,7.50
2022-11-12T08:32:15.979Z,8.00
2022-11-12T08:35:40.982Z,8.50
2022-11-12T08:39:04.895Z,8.70
2022-11-12T08:42:26.595Z,9.00
2022-11-12T08:45:48.203Z,9.00
2022-11-12T08:49:09.798Z,9.30
2022-11-12T08:52:31.407Z,9.20
2022-11-12T08:55:54.649Z,9.20
2022-11-12T08:59:16.555Z,9.50
2022-11-12T09:02:38.182Z,9.50
2022-11-12T09:06:02.137Z,9.50
2022-11-12T09:09:23.743Z,9.00
2022-11-12T09:12:50.192Z,8.80
2022-11-12T09:16:11.801Z,8.50
2022-11-12T09:19:33.417Z,8.40
2022-11-12T09:22:58.134Z,8.40
2022-11-12T09:26:19.757Z,8.50
2022-11-12T09:29:42.690Z,8.40
2022-11-12T09:33:04.401Z,8.40
2022-11-12T09:36:25.989Z,8.30
2022-11-12T09:39:47.579Z,8.30
2022-11-12T09:43:11.186Z,8.20
2022-11-12T09:46:39.591Z,8.30
2022-11-12T09:50:04.057Z,8.40
2022-11-12T09:53:39.034Z,8.50
2022-11-12T09:57:04.579Z,8.70
2022-11-12T10:00:32.276Z,8.70
2022-11-12T10:04:01.447Z,8.70
2022-11-12T10:07:29.581Z,8.70
2022-11-12T10:10:53.728Z,8.80
2022-11-12T10:14:19.989Z,8.80
2022-11-12T10:17:44.427Z,9.00
2022-11-12T10:21:11.745Z,9.00
2022-11-12T10:24:34.602Z,9.20
2022-11-12T10:27:56.393Z,9.20
2022-11-12T10:31:23.517Z,9.30
2022-11-12T10:34:45.296Z,9.30
2022-11-12T10:38:12.422Z,9.40
2022-11-12T10:41:34.328Z,9.60
2022-11-12T10:45:15.472Z,9.60
2022-11-12T10:48:37.126Z,9.70
2022-11-12T10:51:58.831Z,9.80
2022-11-12T10:55:22.927Z,9.80
2022-11-12T10:58:44.536Z,9.80
2022-11-12T11:02:15.528Z,9.90
2022-11-12T11:05:38.067Z,9.90
2022-11-12T11:09:14.097Z,9.90
2022-11-12T11:12:37.053Z,10.00
2022-11-12T11:16:01.578Z,10.10
2022-11-12T11:19:27.794Z,10.10
2022-11-12T11:22:51.764Z,10.00
2022-11-12T11:26:20.765Z,9.90
2022-11-12T11:29:50.910Z,9.80
2022-11-12T11:33:22.992Z,9.90
2022-11-12T11:36:50.503Z,9.90
2022-11-12T11:40:15.541Z,10.00
2022-11-12T11:43:45.376Z,9.90
2022-11-12T11:47:15.720Z,10.00
2022-11-12T11:50:39.271Z,10.00
2022-11-12T11:54:05.042Z,10.00
2022-11-12T11:57:28.523Z,10.00
2022-11-12T12:00:54.731Z,10.00
2022-11-12T12:04:27.518Z,10.00
2022-11-12T12:07:52.456Z,10.30
2022-11-12T12:11:19.568Z,10.30
2022-11-12T12:14:47.068Z,10.40
2022-11-12T12:18:16.288Z,10.40
2022-11-12T12:21:41.609Z,10.40
2022-11-12T12:25:07.648Z,10.60
2022-11-12T12:28:34.926Z,10.70
2022-11-12T12:32:04.385Z,10.70
2022-11-12T12:35:28.132Z,10.90
2022-11-12T12:38:51.712Z,11.00
2022-11-12T12:42:15.118Z,11.10
2022-11-12T12:45:39.463Z,11.20
2022-11-12T12:49:01.744Z,11.20
2022-11-12T12:52:23.372Z,11.20
2022-11-12T12:55:47.090Z,11.20
2022-11-12T12:59:18.125Z,11.20
2022-11-12T13:02:39.771Z,11.20
2022-11-12T13:06:07.755Z,11.20
2022-11-12T13:09:29.359Z,11.10
2022-11-12T13:13:05.734Z,11.10
2022-11-12T13:16:45.847Z,11.20
2022-11-12T13:20:18.372Z,11.20
2022-11-12T13:23:44.059Z,11.30
2022-11-12T13:27:05.643Z,11.30
2022-11-12T13:30:46.021Z,11.30
2022-11-12T13:34:18.096Z,11.30
2022-11-12T13:37:42.675Z,11.30
2022-11-12T13:41:07.625Z,11.40
2022-11-12T13:44:29.298Z,11.50
2022-11-12T13:47:51.782Z,11.40
2022-11-12T13:51:16.476Z,11.40
2022-11-12T13:54:38.471Z,11.40
2022-11-12T13:58:00.067Z,11.40
2022-11-12T14:01:22.988Z,11.40
2022-11-12T14:04:44.670Z,11.30
2022-11-12T14:08:22.993Z,11.30
2022-11-12T14:11:52.031Z,11.20
2022-11-12T14:15:20.144Z,11.20
2022-11-12T14:18:50.175Z,11.20
2022-11-12T14:22:13.688Z,11.10
2022-11-12T14:25:45.434Z,11.10
2022-11-12T14:29:16.016Z,11.00
2022-11-12T14:32:37.857Z,11.00
2022-11-12T14:36:00.750Z,11.00
2022-11-12T14:39:22.873Z,11.00
2022-11-12T14:42:44.735Z,10.90
2022-11-12T14:46:08.632Z,10.80
2022-11-12T14:49:39.369Z,10.70
2022-11-12T14:53:05.474Z,10.70
2022-11-12T14:56:35.148Z,10.60
2022-11-12T14:59:57.519Z,10.50
2022-11-12T15:03:21.019Z,10.40
2022-11-12T15:06:42.753Z,10.30
2022-11-12T15:10:19.302Z,10.30
2022-11-12T15:13:41.488Z,10.10
2022-11-12T15:17:03.337Z,10.00
2022-11-12T15:20:27.174Z,9.90
2022-11-12T15:23:49.302Z,9.90
2022-11-12T15:27:25.776Z,9.80
2022-11-12T15:31:00.085Z,9.60
2022-11-12T15:34:25.911Z,9.60
2022-11-12T15:37:49.121Z,9.40
2022-11-12T15:41:19.789Z,9.20
2022-11-12T15:44:41.579Z,9.10
2022-11-12T15:48:03.367Z,8.90
2022-11-12T15:51:24.963Z,8.70
2022-11-12T15:54:48.157Z,8.60
2022-11-12T15:58:12.740Z,8.50
2022-11-12T16:01:34.369Z,8.30
2022-11-12T16:04:56.158Z,8.30
2022-11-12T16:08:17.778Z,8.20
2022-11-12T16:11:40.784Z,8.10
2022-11-12T16:15:02.394Z,8.00
2022-11-12T16:18:24.006Z,8.00
2022-11-12T16:21:45.602Z,7.80
2022-11-12T16:25:07.603Z,7.70
2022-11-12T16:28:30.557Z,7.60
2022-11-12T16:31:52.136Z,7.60
2022-11-12T16:35:13.917Z,7.50
2022-11-12T16:38:35.540Z,7.40
2022-11-12T16:41:57.169Z,7.30
2022-11-12T16:45:21.153Z,7.30
2022-11-12T16:48:42.767Z,7.20
2022-11-12T16:52:04.606Z,7.10
2022-11-12T16:55:26.204Z,7.10
2022-11-12T16:58:48.219Z,7.10
2022-11-12T17:02:13.781Z,7.00
2022-11-12T17:05:35.406Z,6.90
2022-11-12T17:08:57.000Z,6.90
2022-11-12T17:12:18.588Z,6.80
2022-11-12T17:15:40.231Z,6.70
2022-11-12T17:19:03.432Z,6.70
2022-11-12T17:22:25.050Z,6.70
2022-11-12T17:25:46.686Z,6.60
2022-11-12T17:29:08.639Z,6.50
2022-11-12T17:32:30.273Z,6.50
2022-11-12T17:35:53.244Z,6.40
2022-11-12T17:39:14.822Z,6.40
2022-11-12T17:42:36.394Z,6.30
2022-11-12T17:45:57.989Z,6.30
2022-11-12T17:49:19.643Z,6.30
2022-11-12T17:52:42.593Z,6.20
2022-11-12T17:56:04.516Z,6.20
2022-11-12T17:59:26.091Z,6.10
2022-11-12T18:02:47.676Z,6.10
2022-11-12T18:06:10.297Z,6.00
2022-11-12T18:09:33.248Z,6.00
2022-11-12T18:12:54.825Z,6.00
2022-11-12T18:16:17.637Z,5.90
2022-11-12T18:19:39.257Z,5.80
2022-11-12T18:23:00.847Z,5.70
2022-11-12T18:26:23.811Z,5.70
2022-11-12T18:29:45.451Z,5.60
2022-11-12T18:33:07.098Z,5.60
2022-11-12T18:36:28.691Z,5.50
2022-11-12T18:39:50.265Z,5.50
2022-11-12T18:43:13.192Z,5.50
2022-11-12T18:46:34.771Z,5.50
2022-11-12T18:49:56.361Z,5.40
2022-11-12T18:53:17.948Z,5.40
2022-11-12T18:56:39.552Z,5.40
2022-11-12T19:00:02.535Z,5.40
2022-11-12T19:03:24.206Z,5.30
2022-11-12T19:06:45.908Z,5.30
2022-11-12T19:10:14.454Z,5.30
2022-11-12T19:13:36.944Z,5.20
2022-11-12T19:16:59.940Z,5.20
2022-11-12T19:20:21.553Z,5.10
2022-11-12T19:23:43.133Z,5.10
2022-11-12T19:27:04.712Z,5.10
2022-11-12T19:30:26.308Z,5.00
2022-11-12T19:33:49.709Z,5.00
2022-11-12T19:37:32.328Z,5.00
2022-11-12T19:40:52.939Z,5.00
2022-11-12T19:44:14.574Z,4.90
2022-11-12T19:47:36.156Z,4.90
2022-11-12T19:51:01.945Z,4.90
2022-11-12T19:54:23.572Z,5.00
2022-11-12T19:57:45.200Z,5.00
2022-11-12T20:01:08.033Z,4.90
2022-11-12T20:04:29.725Z,5.00
2022-11-12T20:07:52.710Z,4.90
2022-11-12T20:11:14.598Z,4.90
2022-11-12T20:14:36.196Z,4.90
2022-11-12T20:17:57.788Z,5.00
2022-11-12T20:21:19.403Z,4.90
2022-11-12T20:24:42.349Z,4.90
2022-11-12T20:28:04.112Z,4.90
2022-11-12T20:31:25.778Z,4.90
2022-11-12T20:34:47.446Z,4.80
2022-11-12T20:38:09.044Z,4.80
2022-11-12T20:41:33.642Z,4.80
2022-11-12T20:44:55.226Z,4.70
2022-11-12T20:48:16.807Z,4.60
2022-11-12T20:51:38.452Z,4.50
2022-11-12T20:55:00.875Z,4.50
2022-11-12T20:58:23.973Z,4.50
2022-11-12T21:01:45.618Z,4.50
2022-11-12T21:05:07.636Z,4.40
2022-11-12T21:08:30.676Z,4.40
2022-11-12T21:11:52.296Z,4.40
2022-11-12T21:15:15.459Z,4.40
2022-11-12T21:18:37.394Z,4.40
2022-11-12T21:21:59.013Z,4.40
2022-11-12T21:25:20.970Z,4.40
2022-11-12T21:28:43.450Z,4.40
2022-11-12T21:32:06.582Z,4.30
2022-11-12T21:35:28.236Z,4.40
2022-11-12T21:38:49.893Z,4.30
2022-11-12T21:42:11.493Z,4.20
2022-11-12T21:45:33.074Z,4.20
2022-11-12T21:48:56.505Z,4.20
2022-11-12T21:52:18.119Z,4.10
2022-11-12T21:55:39.757Z,4.00
2022-11-12T21:59:01.724Z,4.00
2022-11-12T22:02:23.469Z,3.90
2022-11-12T22:05:46.459Z,3.90
2022-11-12T22:09:08.233Z,3.80
2022-11-12T22:12:29.856Z,3.80
2022-11-12T22:15:51.686Z,3.80
2022-11-12T22:19:13.297Z,3.70
2022-11-12T22:22:36.220Z,3.70
2022-11-12T22:25:57.814Z,3.70
2022-11-12T22:29:19.469Z,3.70
2022-11-12T22:32:41.079Z,3.70
2022-11-12T22:36:02.849Z,3.70
2022-11-12T22:39:25.805Z,3.60
2022-11-12T22:42:47.393Z,3.60
2022-11-12T22:46:10.263Z,3.50
2022-11-12T22:49:31.862Z,3.50
2022-11-12T22:52:54.785Z,3.50
2022-11-12T22:56:17.832Z,3.50
2022-11-12T22:59:39.456Z,3.40
2022-11-12T23:03:01.061Z,3.30
2022-11-12T23:06:23.160Z,3.20
2022-11-12T23:09:44.748Z,3.20
2022-11-12T23:13:07.723Z,3.20
2022-11-12T23:16:29.760Z,3.10
2022-11-12T23:19:51.365Z,3.10
2022-11-12T23:23:13.057Z,3.00
2022-11-12T23:26:34.734Z,3.00
2022-11-12T23:29:57.693Z,3.00
2022-11-12T23:33:19.274Z,3.00
2022-11-12T23:36:40.922Z,3.00
2022-11-12T23:40:02.662Z,3.00
2022-11-12T23:43:24.310Z,3.10
2022-11-12T23:46:47.280Z,3.00
2022-11-12T23:50:09.031Z,3.00
2022-11-12T23:53:30.709Z,3.00
2022-11-12T23:56:52.318Z,3.00
